Time;durP1;ratioP1;P1;durP2;ratioP2;P2;SDS_P1;SDS_P2;PMS_P1;PMS_P2;Temp;Humidity;BMP_temperature;BMP_pressure;BME280_temperature;BME280_humidity;BME280_pressure;Samples;Min_cycle;Max_cycle;Signal;HPM_P1;HPM_P2
2021/06/14 00:00:31;;;;;;;;;;;;;;;11.15;78.94;100946.03;1654758;86;20133;-90
2021/06/14 00:02:57;;;;;;;;;;;;;;;11.13;78.95;100945.30;1654488;87;20170;-91
2021/06/14 00:05:33;;;;;;;;;;;;;;;11.10;79.02;100942.86;1654466;87;20135;-89
2021/06/14 00:08:00;;;;;;;;;;;;;;;11.05;79.07;100944.46;1654396;86;20139;-88
2021/06/14 00:10:27;;;;;;;;;;;;;;;11.02;79.17;100941.57;1654519;87;20238;-90
2021/06/14 00:12:54;;;;;;;;;;;;;;;11.01;79.32;100941.66;1654298;87;20166;-88
2021/06/14 00:15:19;;;;;;;;;;;;;;;10.97;79.40;100933.56;1654461;87;20459;-90
2021/06/14 00:17:45;;;;;;;;;;;;;;;10.95;79.38;100930.16;1654354;87;20187;-90
2021/06/14 00:20:13;;;;;;;;;;;;;;;10.92;79.62;100933.00;1654583;86;20165;-90
2021/06/14 00:22:43;;;;;;;;;;;;;;;10.90;79.54;100937.55;1654754;86;20113;-90
2021/06/14 00:25:12;;;;;;;;;;;;;;;10.86;79.65;100934.70;1654827;86;20161;-90
2021/06/14 00:27:38;;;;;;;;;;;;;;;10.85;79.82;100938.30;1654647;86;20134;-90
2021/06/14 00:30:05;;;;;;;;;;;;;;;10.81;79.72;100935.02;1654696;87;20109;-89
2021/06/14 00:32:31;;;;;;;;;;;;;;;10.79;79.79;100928.53;1654617;86;20106;-87
2021/06/14 00:34:57;;;;;;;;;;;;;;;10.77;79.90;100929.56;1654463;87;20162;-89
2021/06/14 00:37:22;;;;;;;;;;;;;;;10.75;79.89;100928.32;1654184;87;20158;-87
2021/06/14 00:39:48;;;;;;;;;;;;;;;10.73;79.88;100927.59;1654441;86;20147;-90
2021/06/14 00:42:14;;;;;;;;;;;;;;;10.73;79.91;100924.11;1654238;86;20183;-89
2021/06/14 00:44:40;;;;;;;;;;;;;;;10.71;80.00;100932.11;1654551;87;20159;-87
2021/06/14 00:47:06;;;;;;;;;;;;;;;10.70;80.05;100933.06;1654418;86;20156;-90
2021/06/14 00:49:32;;;;;;;;;;;;;;;10.69;80.01;100934.47;1654699;87;20163;-89
2021/06/14 00:51:57;;;;;;;;;;;;;;;10.67;80.02;100928.45;1654741;86;20144;-90
2021/06/14 00:54:24;;;;;;;;;;;;;;;10.64;79.99;100929.49;1654931;87;20431;-89
2021/06/14 00:56:50;;;;;;;;;;;;;;;10.61;80.19;100928.36;1654708;86;20143;-89
2021/06/14 00:59:16;;;;;;;;;;;;;;;10.61;80.16;100932.80;1654801;87;20109;-90
2021/06/14 01:01:41;;;;;;;;;;;;;;;10.60;80.15;100930.64;1654628;87;20196;-89
2021/06/14 01:04:07;;;;;;;;;;;;;;;10.58;80.27;100929.03;1654736;87;20198;-89
2021/06/14 01:06:33;;;;;;;;;;;;;;;10.56;80.15;100930.43;1654578;87;20218;-89
2021/06/14 01:08:59;;;;;;;;;;;;;;;10.55;80.15;100925.63;1654745;86;20192;-85
2021/06/14 01:11:28;;;;;;;;;;;;;;;10.53;80.09;100926.22;1654901;87;20153;-88
2021/06/14 01:14:17;;;;;;;;;;;;;;;10.51;80.15;100926.77;1654530;84;20147;-88
2021/06/14 01:16:55;;;;;;;;;;;;;;;10.51;80.27;100934.69;1654827;86;20132;-90
2021/06/14 01:19:44;;;;;;;;;;;;;;;10.48;80.23;100927.44;1654660;86;20143;-89
2021/06/14 01:22:22;;;;;;;;;;;;;;;10.45;80.28;100930.27;1648695;87;20436;-89
2021/06/14 01:24:59;;;;;;;;;;;;;;;10.42;80.36;100923.38;1654351;87;20488;-88
2021/06/14 01:27:37;;;;;;;;;;;;;;;10.40;80.45;100928.37;1628100;88;20385;-89
2021/06/14 01:30:10;;;;;;;;;;;;;;;10.38;80.53;100927.64;1651485;87;20576;-89
2021/06/14 01:32:38;;;;;;;;;;;;;;;10.36;80.41;100928.20;1654305;87;20183;-90
2021/06/14 01:35:07;;;;;;;;;;;;;;;10.33;80.69;100925.27;1654522;87;20183;-90
2021/06/14 01:37:34;;;;;;;;;;;;;;;10.32;80.58;100928.38;1654357;86;20155;-89
2021/06/14 01:40:02;;;;;;;;;;;;;;;10.31;80.66;100934.61;1654596;87;20139;-90
2021/06/14 01:42:28;;;;;;;;;;;;;;;10.32;80.77;100938.94;1654364;87;20138;-90
2021/06/14 01:44:54;;;;;;;;;;;;;;;10.30;80.74;100935.56;1654443;86;20191;-90
2021/06/14 01:47:20;;;;;;;;;;;;;;;10.29;80.53;100930.37;1654337;87;20460;-89
2021/06/14 01:49:46;;;;;;;;;;;;;;;10.27;80.65;100933.11;1654406;87;20139;-90
2021/06/14 01:52:12;;;;;;;;;;;;;;;10.24;80.63;100929.31;1654261;86;20186;-88
2021/06/14 01:54:38;;;;;;;;;;;;;;;10.22;80.73;100927.70;1654649;87;20131;-88
2021/06/14 01:57:05;;;;;;;;;;;;;;;10.20;80.74;100930.89;1654613;86;20156;-89
2021/06/14 01:59:35;;;;;;;;;;;;;;;10.16;80.80;100922.33;1654899;87;20397;-88
2021/06/14 02:02:04;;;;;;;;;;;;;;;10.12;80.87;100925.26;1654430;86;20198;-89
2021/06/14 02:04:32;;;;;;;;;;;;;;;10.08;80.93;100918.00;1654524;87;20182;-88
2021/06/14 02:06:58;;;;;;;;;;;;;;;10.06;81.06;100918.56;1654240;87;20195;-88
2021/06/14 02:09:25;;;;;;;;;;;;;;;10.04;81.14;100913.39;1654443;86;20159;-88
2021/06/14 02:11:53;;;;;;;;;;;;;;;10.02;81.23;100915.27;1654174;87;20580;-89
2021/06/14 02:14:22;;;;;;;;;;;;;;;10.01;81.09;100912.73;1654657;87;20127;-88
2021/06/14 02:16:49;;;;;;;;;;;;;;;10.00;81.15;100914.97;1654410;87;20435;-88
2021/06/14 02:19:15;;;;;;;;;;;;;;;9.96;81.16;100913.47;1654773;87;20117;-89
2021/06/14 02:21:42;;;;;;;;;;;;;;;9.92;81.35;100912.81;1654559;87;20439;-89
2021/06/14 02:24:08;;;;;;;;;;;;;;;9.91;81.39;100907.65;1654916;86;20113;-90
2021/06/14 02:26:36;;;;;;;;;;;;;;;9.91;81.46;100911.13;1654583;86;20125;-90
2021/06/14 02:29:02;;;;;;;;;;;;;;;9.89;81.53;100909.52;1654804;86;20117;-89
2021/06/14 02:31:28;;;;;;;;;;;;;;;9.85;81.48;100910.17;1654594;86;20133;-90
2021/06/14 02:33:54;;;;;;;;;;;;;;;9.83;81.70;100912.05;1654428;87;20134;-89
2021/06/14 02:36:21;;;;;;;;;;;;;;;9.82;81.69;100915.63;1654556;86;20520;-89
2021/06/14 02:38:47;;;;;;;;;;;;;;;9.80;81.76;100917.02;1654343;86;20223;-89
2021/06/14 02:41:13;;;;;;;;;;;;;;;9.79;81.92;100911.37;1654504;87;20460;-89
2021/06/14 02:43:39;;;;;;;;;;;;;;;9.78;81.97;100916.28;1654232;86;20143;-89
2021/06/14 02:46:07;;;;;;;;;;;;;;;9.78;81.89;100912.80;1654354;87;20139;-89
2021/06/14 02:48:33;;;;;;;;;;;;;;;9.77;82.07;100913.72;1654383;86;20175;-89
2021/06/14 02:51:00;;;;;;;;;;;;;;;9.78;82.14;100921.55;1654464;87;20126;-90
2021/06/14 02:53:27;;;;;;;;;;;;;;;9.78;82.29;100911.48;1654448;87;20206;-91
2021/06/14 02:55:56;;;;;;;;;;;;;;;9.80;82.52;100913.55;1654514;86;20456;-89
2021/06/14 02:58:29;;;;;;;;;;;;;;;9.80;82.58;100914.86;1654574;87;20334;-89
2021/06/14 03:00:54;;;;;;;;;;;;;;;9.80;82.69;100906.48;1654550;87;20109;-89
2021/06/14 03:03:21;;;;;;;;;;;;;;;9.82;82.63;100910.36;1654555;87;20109;-89
2021/06/14 03:05:46;;;;;;;;;;;;;;;9.82;82.74;100911.20;1653836;86;20129;-89
2021/06/14 03:08:12;;;;;;;;;;;;;;;9.82;82.93;100911.20;1654703;86;20422;-89
2021/06/14 03:10:38;;;;;;;;;;;;;;;9.84;83.08;100911.13;1640997;87;20406;-89
2021/06/14 03:13:04;;;;;;;;;;;;;;;9.86;83.28;100907.91;1654344;87;20159;-89
2021/06/14 03:15:32;;;;;;;;;;;;;;;9.88;83.19;100912.63;1654402;86;20162;-89
2021/06/14 03:17:58;;;;;;;;;;;;;;;9.91;83.20;100908.97;1654303;87;20501;-89
2021/06/14 03:20:25;;;;;;;;;;;;;;;9.93;83.27;100903.11;1654604;87;20105;-89
2021/06/14 03:22:52;;;;;;;;;;;;;;;9.96;83.53;100905.56;1654743;86;20109;-90
2021/06/14 03:25:19;;;;;;;;;;;;;;;9.99;83.31;100908.02;1654754;87;20106;-90
2021/06/14 03:27:45;;;;;;;;;;;;;;;10.01;83.36;100908.30;1654646;86;20110;-90
2021/06/14 03:30:12;;;;;;;;;;;;;;;10.06;83.24;100902.73;1654549;87;20421;-90
2021/06/14 03:32:41;;;;;;;;;;;;;;;10.10;83.32;100905.55;1654387;87;20192;-89
2021/06/14 03:35:10;;;;;;;;;;;;;;;10.14;83.29;100905.77;1653545;87;20420;-89
2021/06/14 03:37:36;;;;;;;;;;;;;;;10.18;83.16;100909.91;1654487;86;20125;-89
2021/06/14 03:40:04;;;;;;;;;;;;;;;10.23;83.20;100910.48;1654854;86;20145;-91
2021/06/14 03:42:31;;;;;;;;;;;;;;;10.28;83.20;100911.53;1654520;86;20235;-88
2021/06/14 03:44:58;;;;;;;;;;;;;;;10.30;83.09;100911.83;1654533;87;20113;-90
2021/06/14 03:47:24;;;;;;;;;;;;;;;10.36;83.34;100917.64;1654462;86;20463;-89
2021/06/14 03:49:50;;;;;;;;;;;;;;;10.41;83.32;100914.26;1654791;87;20105;-90
2021/06/14 03:52:16;;;;;;;;;;;;;;;10.46;83.49;100915.68;1654487;87;20098;-89
2021/06/14 03:54:42;;;;;;;;;;;;;;;10.52;83.71;100914.42;1654676;86;20488;-89
2021/06/14 03:57:08;;;;;;;;;;;;;;;10.56;83.27;100915.92;1654215;87;20139;-89
2021/06/14 03:59:33;;;;;;;;;;;;;;;10.60;83.16;100908.68;1654441;87;20215;-87
2021/06/14 04:01:59;;;;;;;;;;;;;;;10.64;83.13;100918.09;1654389;87;20144;-89
2021/06/14 04:04:49;;;;;;;;;;;;;;;10.67;83.09;100910.82;1654815;87;20494;-88
2021/06/14 04:07:11;;;;;;;;;;;;;;;10.73;83.03;100909.11;1652362;87;20139;-89
2021/06/14 04:09:37;;;;;;;;;;;;;;;10.79;82.98;100910.49;1654586;86;20166;-89
2021/06/14 04:12:04;;;;;;;;;;;;;;;10.85;82.97;100915.86;1654390;86;20533;-90
2021/06/14 04:14:30;;;;;;;;;;;;;;;10.90;82.88;100915.11;1654527;87;20306;-88
2021/06/14 04:16:56;;;;;;;;;;;;;;;10.93;82.93;100913.11;1654628;86;20153;-89
2021/06/14 04:19:21;;;;;;;;;;;;;;;10.97;82.72;100911.11;1654711;86;20420;-89
2021/06/14 04:21:47;;;;;;;;;;;;;;;11.02;83.01;100914.29;1654481;87;20143;-90
2021/06/14 04:24:13;;;;;;;;;;;;;;;11.09;82.90;100912.97;1654439;86;20153;-88
2021/06/14 04:26:38;;;;;;;;;;;;;;;11.15;82.87;100904.61;1654586;87;20594;-89
2021/06/14 04:29:04;;;;;;;;;;;;;;;11.22;83.20;100907.25;1654790;86;20153;-91
2021/06/14 04:31:31;;;;;;;;;;;;;;;11.28;83.03;100900.69;1654643;87;20136;-89
2021/06/14 04:33:57;;;;;;;;;;;;;;;11.34;83.05;100903.41;1654608;86;20415;-89
2021/06/14 04:36:22;;;;;;;;;;;;;;;11.40;83.07;100904.33;1654476;87;20116;-90
2021/06/14 04:38:48;;;;;;;;;;;;;;;11.45;82.96;100904.40;1654483;87;20122;-88
2021/06/14 04:41:14;;;;;;;;;;;;;;;11.51;82.53;100905.28;1640874;87;20414;-88
2021/06/14 04:43:40;;;;;;;;;;;;;;;11.55;82.31;100899.79;1654453;86;20448;-89
2021/06/14 04:46:05;;;;;;;;;;;;;;;11.59;82.11;100905.27;1654299;86;20167;-89
2021/06/14 04:48:31;;;;;;;;;;;;;;;11.63;81.88;100905.42;1654284;86;20194;-89
2021/06/14 04:50:57;;;;;;;;;;;;;;;11.67;81.74;100906.90;1654586;86;20143;-90
2021/06/14 04:53:23;;;;;;;;;;;;;;;11.71;81.75;100905.73;1654356;86;20500;-88
2021/06/14 04:55:48;;;;;;;;;;;;;;;11.76;81.79;100910.24;1654473;86;20130;-88
2021/06/14 04:58:14;;;;;;;;;;;;;;;11.82;82.06;100915.59;1654329;86;20175;-89
2021/06/14 05:00:40;;;;;;;;;;;;;;;11.89;81.74;100907.16;1654456;87;20162;-89
2021/06/14 05:03:06;;;;;;;;;;;;;;;11.96;81.77;100902.30;1654509;87;20433;-88
2021/06/14 05:05:33;;;;;;;;;;;;;;;12.01;81.63;100909.45;1654556;86;20176;-89
2021/06/14 05:07:58;;;;;;;;;;;;;;;12.06;81.51;100898.53;1654251;87;20190;-89
2021/06/14 05:10:24;;;;;;;;;;;;;;;12.13;81.74;100902.44;1654321;87;20162;-89
2021/06/14 05:12:50;;;;;;;;;;;;;;;12.20;81.75;100907.66;1654370;87;20585;-90
2021/06/14 05:15:17;;;;;;;;;;;;;;;12.24;81.41;100902.55;1654478;87;20195;-89
2021/06/14 05:17:43;;;;;;;;;;;;;;;12.31;81.50;100910.91;1654085;86;20294;-88
2021/06/14 05:20:09;;;;;;;;;;;;;;;12.36;81.16;100909.59;1654566;87;20138;-88
2021/06/14 05:22:34;;;;;;;;;;;;;;;12.42;81.01;100912.30;1654442;87;20155;-89
2021/06/14 05:25:00;;;;;;;;;;;;;;;12.48;81.03;100906.57;1654683;86;20437;-87
2021/06/14 05:27:26;;;;;;;;;;;;;;;12.53;80.87;100907.55;1654277;87;20179;-89
2021/06/14 05:29:52;;;;;;;;;;;;;;;12.58;80.96;100910.73;1654466;86;20123;-90
2021/06/14 05:32:18;;;;;;;;;;;;;;;12.63;80.64;100913.88;1654339;86;20163;-89
2021/06/14 05:34:43;;;;;;;;;;;;;;;12.68;80.72;100914.41;1654603;87;20460;-89
2021/06/14 05:37:09;;;;;;;;;;;;;;;12.74;80.56;100915.78;1654238;86;20191;-89
2021/06/14 05:39:35;;;;;;;;;;;;;;;12.80;80.56;100920.15;1654721;87;20142;-87
2021/06/14 05:42:01;;;;;;;;;;;;;;;12.87;80.46;100916.58;1654693;86;20114;-88
2021/06/14 05:44:27;;;;;;;;;;;;;;;12.93;80.55;100911.29;1654908;86;20148;-86
2021/06/14 05:46:53;;;;;;;;;;;;;;;12.97;80.50;100908.32;1654657;86;20145;-85
2021/06/14 05:49:19;;;;;;;;;;;;;;;13.02;80.32;100911.95;1654917;87;20133;-87
2021/06/14 05:51:45;;;;;;;;;;;;;;;13.08;80.22;100914.14;1654615;87;20136;-89
2021/06/14 05:54:11;;;;;;;;;;;;;;;13.13;79.98;100913.34;1658936;85;20206;-88
2021/06/14 05:56:37;;;;;;;;;;;;;;;13.18;79.78;100913.83;1651946;86;20137;-87
2021/06/14 05:59:04;;;;;;;;;;;;;;;13.24;79.66;100915.19;1677799;85;20164;-87
2021/06/14 06:01:30;;;;;;;;;;;;;;;13.27;79.79;100912.34;1681808;85;20152;-86
2021/06/14 06:03:55;;;;;;;;;;;;;;;13.33;79.77;100916.70;1681680;85;20168;-87
2021/06/14 06:06:21;;;;;;;;;;;;;;;13.37;79.58;100916.84;1682267;85;20196;-89
2021/06/14 06:08:47;;;;;;;;;;;;;;;13.42;79.25;100915.15;1681596;85;20192;-88
2021/06/14 06:11:12;;;;;;;;;;;;;;;13.48;79.50;100917.34;1682423;85;20160;-89
2021/06/14 06:13:38;;;;;;;;;;;;;;;13.55;79.46;100917.73;1681729;85;20171;-87
2021/06/14 06:16:05;;;;;;;;;;;;;;;13.59;78.96;100920.05;1681997;85;20153;-88
2021/06/14 06:18:30;;;;;;;;;;;;;;;13.64;79.29;100918.36;1681963;85;20121;-88
2021/06/14 06:20:56;;;;;;;;;;;;;;;13.68;79.34;100916.31;1681884;85;20159;-90
2021/06/14 06:23:22;;;;;;;;;;;;;;;13.76;79.25;100937.33;1681946;85;20128;-87
2021/06/14 06:25:48;;;;;;;;;;;;;;;13.80;79.07;100933.47;1681798;85;20164;-87
2021/06/14 06:28:14;;;;;;;;;;;;;;;13.89;78.20;100940.38;1681810;85;20164;-87
2021/06/14 06:30:40;;;;;;;;;;;;;;;13.95;78.28;100930.14;1682094;85;20163;-88
2021/06/14 06:33:06;;;;;;;;;;;;;;;14.04;78.18;100935.19;1681545;85;20132;-88
2021/06/14 06:35:32;;;;;;;;;;;;;;;14.12;78.27;100930.64;1682149;85;20168;-88
2021/06/14 06:37:58;;;;;;;;;;;;;;;14.18;77.79;100924.82;1681469;85;20176;-87
2021/06/14 06:40:23;;;;;;;;;;;;;;;14.25;78.06;100932.20;1681853;85;20207;-86
2021/06/14 06:42:51;;;;;;;;;;;;;;;14.30;77.62;100930.51;1681751;85;20127;-88
2021/06/14 06:45:17;;;;;;;;;;;;;;;14.39;78.35;100927.13;1681968;85;20407;-87
2021/06/14 06:47:43;;;;;;;;;;;;;;;14.44;77.23;100924.10;1674588;85;20462;-89
2021/06/14 06:50:09;;;;;;;;;;;;;;;14.49;77.40;100925.44;1650944;87;20145;-88
2021/06/14 06:52:36;;;;;;;;;;;;;;;14.57;76.72;100931.97;1653659;86;20205;-88
2021/06/14 06:55:05;;;;;;;;;;;;;;;14.63;77.06;100932.81;1652753;86;20411;-88
2021/06/14 06:57:31;;;;;;;;;;;;;;;14.67;76.32;100931.11;1652532;86;20430;-89
2021/06/14 06:59:56;;;;;;;;;;;;;;;14.71;76.70;100925.93;1653632;86;20141;-86
2021/06/14 07:02:22;;;;;;;;;;;;;;;14.76;75.37;100929.53;1651166;86;20090;-87
2021/06/14 07:04:47;;;;;;;;;;;;;;;14.77;75.17;100924.11;1652656;86;20102;-88
2021/06/14 07:07:13;;;;;;;;;;;;;;;14.81;75.09;100927.36;1653119;85;20133;-88
2021/06/14 07:09:39;;;;;;;;;;;;;;;14.83;75.00;100921.42;1653700;86;20146;-89
2021/06/14 07:12:05;;;;;;;;;;;;;;;14.83;74.15;100920.09;1632537;87;20164;-88
2021/06/14 07:14:31;;;;;;;;;;;;;;;14.87;74.53;100923.34;1630148;87;20411;-86
2021/06/14 07:16:57;;;;;;;;;;;;;;;14.95;74.93;100916.94;1653679;86;20129;-88
2021/06/14 07:19:22;;;;;;;;;;;;;;;15.06;75.11;100915.56;1652953;86;20129;-88
2021/06/14 07:21:48;;;;;;;;;;;;;;;15.19;73.72;100917.56;1652341;87;20165;-89
2021/06/14 07:24:14;;;;;;;;;;;;;;;15.28;72.98;100913.31;1654191;86;20483;-89
2021/06/14 07:26:40;;;;;;;;;;;;;;;15.33;73.20;100912.92;1652163;87;20136;-87
2021/06/14 07:29:05;;;;;;;;;;;;;;;15.33;72.78;100910.26;1653510;86;20141;-90
2021/06/14 07:31:31;;;;;;;;;;;;;;;15.33;73.09;100908.93;1652979;86;20492;-88
2021/06/14 07:34:00;;;;;;;;;;;;;;;15.34;73.06;100911.48;1652596;86;20093;-89
2021/06/14 07:36:25;;;;;;;;;;;;;;;15.40;72.81;100909.64;1653423;86;20141;-89
2021/06/14 07:38:51;;;;;;;;;;;;;;;15.49;71.48;100908.84;1652580;86;20148;-89
2021/06/14 07:41:17;;;;;;;;;;;;;;;15.59;71.59;100910.73;1654746;86;20120;-88
2021/06/14 07:43:43;;;;;;;;;;;;;;;15.65;72.27;100907.06;1652192;86;20195;-88
2021/06/14 07:46:09;;;;;;;;;;;;;;;15.71;71.70;100905.25;1654150;87;20133;-86
2021/06/14 07:48:35;;;;;;;;;;;;;;;15.74;71.71;100905.98;1651578;86;20136;-86
2021/06/14 07:51:03;;;;;;;;;;;;;;;15.76;70.51;100907.55;1652875;86;20121;-87
2021/06/14 07:53:29;;;;;;;;;;;;;;;15.75;70.10;100901.84;1652684;87;20145;-88
2021/06/14 07:55:56;;;;;;;;;;;;;;;15.79;71.12;100907.25;1651375;86;20112;-88
2021/06/14 07:58:23;;;;;;;;;;;;;;;15.87;71.31;100902.63;1653971;86;20114;-88
2021/06/14 08:00:49;;;;;;;;;;;;;;;16.00;70.44;100906.41;1652082;86;20132;-86
2021/06/14 08:03:15;;;;;;;;;;;;;;;16.13;70.64;100904.38;1653266;87;20134;-88
2021/06/14 08:05:41;;;;;;;;;;;;;;;16.24;70.31;100903.43;1653433;86;20160;-84
2021/06/14 08:08:07;;;;;;;;;;;;;;;16.34;69.65;100909.14;1651799;86;20129;-87
2021/06/14 08:10:33;;;;;;;;;;;;;;;16.45;69.46;100909.52;1654196;87;20164;-86
2021/06/14 08:12:59;;;;;;;;;;;;;;;16.57;69.19;100905.78;1652144;86;20102;-87
2021/06/14 08:15:27;;;;;;;;;;;;;;;16.66;68.54;100897.47;1653006;87;20117;-88
2021/06/14 08:18:02;;;;;;;;;;;;;;;16.65;68.02;100902.45;1653429;86;20430;-87
2021/06/14 08:20:34;;;;;;;;;;;;;;;16.62;68.44;100900.06;1651479;86;20170;-88
2021/06/14 08:25:34;;;;;;;;;;;;;;;16.58;67.93;100902.16;1652907;86;20200;-85
2021/06/14 08:28:00;;;;;;;;;;;;;;;16.65;67.25;100896.63;1652353;87;20143;-85
2021/06/14 08:30:27;;;;;;;;;;;;;;;16.74;67.44;100900.28;1653732;87;20196;-85
2021/06/14 08:32:54;;;;;;;;;;;;;;;16.83;66.14;100895.49;1652314;86;20175;-85
2021/06/14 08:35:22;;;;;;;;;;;;;;;16.88;66.56;100887.94;1652856;87;20141;-87
2021/06/14 08:37:49;;;;;;;;;;;;;;;16.95;66.26;100882.05;1653301;86;20177;-86
2021/06/14 08:40:18;;;;;;;;;;;;;;;17.06;66.43;100885.91;1652224;86;20184;-87
2021/06/14 08:42:44;;;;;;;;;;;;;;;17.16;66.31;100884.58;1653270;87;20157;-87
2021/06/14 08:45:11;;;;;;;;;;;;;;;17.22;65.72;100883.53;1652985;86;20383;-88
2021/06/14 08:47:39;;;;;;;;;;;;;;;17.22;65.82;100885.36;1652451;86;20371;-90
2021/06/14 08:50:11;;;;;;;;;;;;;;;17.26;65.65;100875.59;1651731;86;20156;-90
2021/06/14 08:52:37;;;;;;;;;;;;;;;17.18;66.02;100843.47;1630297;87;20282;-88
2021/06/14 08:55:06;;;;;;;;;;;;;;;17.45;64.90;100873.40;1652423;87;20168;-84
2021/06/14 08:57:32;;;;;;;;;;;;;;;17.50;64.82;100875.62;1652933;86;20363;-89
2021/06/14 08:59:58;;;;;;;;;;;;;;;17.59;65.18;100872.11;1653453;86;20133;-90
2021/06/14 09:02:23;;;;;;;;;;;;;;;17.68;65.00;100875.25;1652129;86;20136;-87
2021/06/14 09:04:49;;;;;;;;;;;;;;;17.75;65.25;100873.69;1653677;87;20407;-86
2021/06/14 09:07:15;;;;;;;;;;;;;;;17.86;64.43;100878.03;1652927;86;20129;-87
2021/06/14 09:09:42;;;;;;;;;;;;;;;17.92;63.89;100875.28;1652879;87;20161;-88
2021/06/14 09:12:08;;;;;;;;;;;;;;;17.95;63.05;100876.33;1653344;86;20427;-87
2021/06/14 09:14:42;;;;;;;;;;;;;;;17.99;64.40;100865.20;1652368;86;20153;-87
2021/06/14 09:17:11;;;;;;;;;;;;;;;18.08;63.89;100863.50;1652917;86;20431;-88
2021/06/14 09:19:43;;;;;;;;;;;;;;;18.16;63.88;100870.26;1653684;86;20144;-90
2021/06/14 09:22:21;;;;;;;;;;;;;;;18.23;62.69;100871.37;1651841;87;20148;-89
2021/06/14 09:25:02;;;;;;;;;;;;;;;18.27;62.75;100868.75;1653710;87;20161;-88
2021/06/14 09:27:39;;;;;;;;;;;;;;;18.35;63.04;100872.00;1653183;87;20121;-86
2021/06/14 09:30:19;;;;;;;;;;;;;;;18.44;63.32;100870.28;1651793;86;20156;-86
2021/06/14 09:33:00;;;;;;;;;;;;;;;18.53;62.54;100865.89;1625052;88;20481;-87
2021/06/14 09:35:29;;;;;;;;;;;;;;;18.59;61.67;100865.27;1625100;86;20566;-87
2021/06/14 09:38:04;;;;;;;;;;;;;;;18.56;61.11;100873.58;1652990;87;20136;-88
2021/06/14 09:40:37;;;;;;;;;;;;;;;18.50;60.85;100869.69;1651700;87;20162;-87
2021/06/14 09:43:06;;;;;;;;;;;;;;;18.55;60.44;100863.39;1653550;86;20142;-87
2021/06/14 09:45:32;;;;;;;;;;;;;;;18.61;60.38;100853.94;1653504;86;20383;-88
2021/06/14 09:47:59;;;;;;;;;;;;;;;18.67;60.33;100860.86;1652146;86;20117;-87
2021/06/14 09:50:28;;;;;;;;;;;;;;;18.74;61.10;100850.43;1652270;86;20141;-88
2021/06/14 09:53:08;;;;;;;;;;;;;;;18.83;61.21;100841.50;1652881;86;20136;-88
2021/06/14 09:55:34;;;;;;;;;;;;;;;18.92;60.58;100840.59;1653600;87;20166;-87
2021/06/14 09:58:11;;;;;;;;;;;;;;;19.06;61.65;100850.41;1652007;86;20181;-88
2021/06/14 10:00:47;;;;;;;;;;;;;;;19.08;59.44;100853.75;1626756;87;20140;-87
2021/06/14 10:03:13;;;;;;;;;;;;;;;19.03;59.76;100851.55;1652229;87;20105;-86
2021/06/14 10:05:44;;;;;;;;;;;;;;;19.00;59.48;100851.85;1652502;86;20161;-87
2021/06/14 10:08:10;;;;;;;;;;;;;;;19.03;59.61;100848.88;1654001;86;20165;-88
2021/06/14 10:10:38;;;;;;;;;;;;;;;19.09;60.74;100847.43;1651791;86;20129;-88
2021/06/14 10:13:05;;;;;;;;;;;;;;;19.07;59.17;100842.22;1654626;87;20443;-88
2021/06/14 10:15:33;;;;;;;;;;;;;;;19.02;59.30;100841.85;1652994;86;20136;-87
2021/06/14 10:17:59;;;;;;;;;;;;;;;19.03;59.46;100839.52;1653715;86;20109;-88
2021/06/14 10:20:27;;;;;;;;;;;;;;;19.13;59.70;100836.76;1652070;87;20102;-87
2021/06/14 10:22:56;;;;;;;;;;;;;;;19.23;59.65;100834.83;1652542;86;20109;-87
2021/06/14 10:25:22;;;;;;;;;;;;;;;19.38;58.55;100835.09;1653078;87;20132;-89
2021/06/14 10:27:48;;;;;;;;;;;;;;;19.46;58.13;100836.50;1652310;87;20396;-89
2021/06/14 10:30:18;;;;;;;;;;;;;;;19.52;59.58;100831.87;1653722;86;20157;-88
2021/06/14 10:32:45;;;;;;;;;;;;;;;19.54;58.83;100831.70;1652254;87;20136;-87
2021/06/14 10:35:13;;;;;;;;;;;;;;;19.58;59.37;100824.55;1652629;86;20462;-86
2021/06/14 10:37:47;;;;;;;;;;;;;;;19.65;59.10;100817.59;1652936;87;20141;-84
2021/06/14 10:40:16;;;;;;;;;;;;;;;19.73;59.28;100820.80;1651812;87;20152;-85
2021/06/14 10:42:45;;;;;;;;;;;;;;;19.81;57.91;100820.00;1653772;86;20443;-86
2021/06/14 10:45:13;;;;;;;;;;;;;;;19.85;57.51;100815.52;1633252;87;20117;-86
2021/06/14 10:47:41;;;;;;;;;;;;;;;19.89;56.86;100809.34;1651813;86;20133;-87
2021/06/14 10:50:11;;;;;;;;;;;;;;;19.96;58.38;100811.72;1650705;87;20165;-86
2021/06/14 10:52:44;;;;;;;;;;;;;;;20.09;58.06;100808.59;1653284;86;20150;-87
2021/06/14 10:55:12;;;;;;;;;;;;;;;20.23;59.52;100807.97;1653078;86;20217;-87
2021/06/14 10:57:40;;;;;;;;;;;;;;;20.37;57.21;100806.52;1652077;87;20121;-85
2021/06/14 11:00:25;;;;;;;;;;;;;;;20.43;56.06;100804.50;1654102;86;20168;-86
2021/06/14 11:03:02;;;;;;;;;;;;;;;20.48;57.32;100804.86;1652339;86;20161;-86
2021/06/14 11:05:43;;;;;;;;;;;;;;;20.56;58.08;100794.17;1653014;86;20137;-87
2021/06/14 11:08:20;;;;;;;;;;;;;;;20.67;57.55;100792.20;1653586;86;20127;-87
2021/06/14 11:11:02;;;;;;;;;;;;;;;20.77;56.63;100788.86;1652202;87;20150;-87
2021/06/14 11:13:28;;;;;;;;;;;;;;;20.84;56.51;100784.50;1653054;86;20435;-87
2021/06/14 11:15:55;;;;;;;;;;;;;;;20.94;56.88;100778.47;1653395;86;20182;-87
2021/06/14 11:18:24;;;;;;;;;;;;;;;20.99;56.06;100772.59;1651708;86;20395;-86
2021/06/14 11:20:52;;;;;;;;;;;;;;;21.04;56.36;100769.74;1653183;87;20105;-87
2021/06/14 11:23:26;;;;;;;;;;;;;;;21.08;55.93;100767.05;1652989;86;20128;-87
2021/06/14 11:25:51;;;;;;;;;;;;;;;21.18;55.20;100765.53;1652382;86;20411;-87
2021/06/14 11:28:40;;;;;;;;;;;;;;;21.20;55.58;100764.87;1653729;87;20137;-87
2021/06/14 11:31:19;;;;;;;;;;;;;;;21.27;56.42;100763.69;1652887;87;20133;-87
2021/06/14 11:33:46;;;;;;;;;;;;;;;21.37;54.96;100765.70;1651923;87;20114;-86
2021/06/14 11:36:21;;;;;;;;;;;;;;;21.41;54.10;100767.03;1654183;87;20428;-88
2021/06/14 11:38:48;;;;;;;;;;;;;;;21.45;55.86;100758.13;1646026;87;20136;-87
2021/06/14 11:41:29;;;;;;;;;;;;;;;21.51;53.48;100754.25;1653209;86;20125;-87
2021/06/14 11:44:29;;;;;;;;;;;;;;;21.53;53.69;100750.06;1653728;86;20157;-85
2021/06/14 11:47:15;;;;;;;;;;;;;;;21.50;53.95;100750.41;1634932;87;20451;-88
2021/06/14 11:49:43;;;;;;;;;;;;;;;21.51;53.20;100748.88;1654409;86;20117;-87
2021/06/14 11:52:18;;;;;;;;;;;;;;;21.52;54.12;100739.84;1651488;86;20136;-87
2021/06/14 11:54:45;;;;;;;;;;;;;;;21.60;53.91;100744.34;1652136;86;20157;-87
2021/06/14 11:57:11;;;;;;;;;;;;;;;21.66;53.21;100737.45;1652372;86;20455;-88
2021/06/14 11:59:37;;;;;;;;;;;;;;;21.73;54.39;100739.76;1652942;87;20109;-87
2021/06/14 12:02:06;;;;;;;;;;;;;;;21.79;53.35;100739.06;1653724;87;20137;-90
2021/06/14 12:04:32;;;;;;;;;;;;;;;21.82;53.73;100732.01;1628188;87;20117;-89
2021/06/14 12:07:02;;;;;;;;;;;;;;;21.93;53.24;100735.63;1652585;86;20105;-87
2021/06/14 12:09:26;;;;;;;;;;;;;;;21.95;52.03;100728.25;1652423;86;20137;-88
2021/06/14 12:11:58;;;;;;;;;;;;;;;21.96;51.82;100729.08;1653570;86;20148;-87
2021/06/14 12:14:24;;;;;;;;;;;;;;;21.93;51.40;100726.74;1651577;86;20145;-87
2021/06/14 12:16:59;;;;;;;;;;;;;;;21.91;50.35;100730.09;1653609;87;20149;-88
2021/06/14 12:19:28;;;;;;;;;;;;;;;21.86;51.33;100721.75;1652854;86;20133;-87
2021/06/14 12:21:56;;;;;;;;;;;;;;;21.85;50.68;100724.94;1652080;86;20113;-87
2021/06/14 12:24:22;;;;;;;;;;;;;;;21.86;50.09;100730.64;1654107;87;20157;-88
2021/06/14 12:26:48;;;;;;;;;;;;;;;21.92;51.05;100723.22;1651939;86;20193;-87
2021/06/14 12:29:18;;;;;;;;;;;;;;;22.01;52.37;100714.59;1653252;86;20103;-88
2021/06/14 12:31:44;;;;;;;;;;;;;;;22.11;51.48;100709.86;1653490;86;20136;-88
2021/06/14 12:34:10;;;;;;;;;;;;;;;22.19;51.22;100711.69;1652218;87;20169;-87
2021/06/14 12:36:35;;;;;;;;;;;;;;;22.26;51.61;100709.95;1653823;87;20113;-88
2021/06/14 12:39:01;;;;;;;;;;;;;;;22.30;51.98;100707.74;1652516;86;20113;-88
2021/06/14 12:41:27;;;;;;;;;;;;;;;22.21;50.84;100713.67;1653178;87;20090;-85
2021/06/14 12:43:53;;;;;;;;;;;;;;;22.18;50.59;100714.05;1653244;87;20133;-87